Time;durP1;ratioP1;P1;durP2;ratioP2;P2;SDS_P1;SDS_P2;PMS_P1;PMS_P2;Temp;Humidity;BMP_temperature;BMP_pressure;BME280_temperature;BME280_humidity;BME280_pressure;Samples;Min_cycle;Max_cycle;Signal;HPM_P1;HPM_P2
2023/05/31 00:00:06;;;;;;;8.88;6.35;;;16.40;77.70;;;;;;5036234;28;20104;-86
2023/05/31 00:02:31;;;;;;;8.10;6.05;;;16.40;77.80;;;;;;5035757;28;20053;-85
2023/05/31 00:04:57;;;;;;;7.95;5.82;;;16.40;77.90;;;;;;5018155;28;20053;-84
2023/05/31 00:07:22;;;;;;;9.13;6.25;;;16.30;77.90;;;;;;5017855;28;20026;-85
2023/05/31 00:09:48;;;;;;;8.88;5.55;;;16.40;77.90;;;;;;5018225;28;20029;-86
2023/05/31 00:12:13;;;;;;;8.57;6.18;;;16.30;77.90;;;;;;5018084;28;20518;-85
2023/05/31 00:14:39;;;;;;;7.80;5.80;;;16.30;78.00;;;;;;5017961;28;20024;-84
2023/05/31 00:17:05;;;;;;;8.48;6.07;;;16.30;77.90;;;;;;5035407;28;20025;-86
2023/05/31 00:19:30;;;;;;;8.43;6.10;;;16.30;78.00;;;;;;5017862;28;20103;-86
2023/05/31 00:21:56;;;;;;;8.48;5.90;;;16.30;78.00;;;;;;5017994;28;20025;-86
2023/05/31 00:24:21;;;;;;;8.18;5.65;;;16.30;78.00;;;;;;5017939;28;20029;-85
2023/05/31 00:26:47;;;;;;;8.45;6.05;;;16.30;78.00;;;;;;5017503;28;20048;-85
2023/05/31 00:29:12;;;;;;;8.02;5.93;;;16.30;78.00;;;;;;5017763;28;20399;-85
2023/05/31 00:31:38;;;;;;;8.00;5.97;;;16.30;78.00;;;;;;5017577;28;20057;-85
2023/05/31 00:34:03;;;;;;;8.43;5.90;;;16.30;78.00;;;;;;5017742;28;20056;-86
2023/05/31 00:36:29;;;;;;;8.10;5.60;;;16.30;78.00;;;;;;5017437;28;20029;-86
2023/05/31 00:38:54;;;;;;;8.43;5.70;;;16.30;78.00;;;;;;5017700;28;20027;-85
2023/05/31 00:41:20;;;;;;;7.88;5.55;;;16.30;78.00;;;;;;5017685;28;20035;-85
2023/05/31 00:43:45;;;;;;;8.07;5.50;;;16.30;78.00;;;;;;5035157;28;20556;-85
2023/05/31 00:46:26;;;;;;;8.38;5.68;;;16.30;78.00;;;;;;5017143;28;20506;-86
2023/05/31 00:48:52;;;;;;;8.27;5.45;;;16.40;78.00;;;;;;5017741;28;20024;-85
2023/05/31 00:51:19;;;;;;;9.48;6.18;;;16.40;77.90;;;;;;5017282;28;20057;-85
2023/05/31 00:53:45;;;;;;;8.18;5.47;;;16.40;77.80;;;;;;5017251;28;20026;-85
2023/05/31 00:56:12;;;;;;;7.88;5.20;;;16.40;77.80;;;;;;5016589;28;20112;-84
2023/05/31 00:58:43;;;;;;;7.63;5.55;;;16.40;77.70;;;;;;5016652;28;20025;-87
2023/05/31 01:01:10;;;;;;;8.35;4.97;;;16.40;77.70;;;;;;5017210;28;20076;-85
2023/05/31 01:03:36;;;;;;;8.32;5.72;;;16.40;77.70;;;;;;5017139;28;20029;-85
2023/05/31 01:06:02;;;;;;;9.30;5.90;;;16.50;77.80;;;;;;5016841;28;20021;-84
2023/05/31 01:08:28;;;;;;;9.95;6.80;;;16.40;77.70;;;;;;5034826;28;20109;-85
2023/05/31 01:11:00;;;;;;;8.32;5.88;;;16.40;77.70;;;;;;5017003;28;20055;-85
2023/05/31 01:13:42;;;;;;;8.88;5.85;;;16.40;77.70;;;;;;5016962;28;20030;-85
2023/05/31 01:16:18;;;;;;;8.98;6.65;;;16.40;77.80;;;;;;5016679;28;20078;-85
2023/05/31 01:18:54;;;;;;;9.02;6.25;;;16.30;77.90;;;;;;5016869;28;20483;-85
2023/05/31 01:21:25;;;;;;;10.05;7.18;;;16.30;77.90;;;;;;5016821;28;20053;-87
2023/05/31 01:24:00;;;;;;;8.65;6.43;;;16.30;77.90;;;;;;5034417;28;20057;-86
2023/05/31 01:26:48;;;;;;;9.50;6.78;;;16.30;78.00;;;;;;5016498;28;20087;-85
2023/05/31 01:29:21;;;;;;;9.63;6.75;;;16.30;78.00;;;;;;5016767;28;20022;-85
2023/05/31 01:31:48;;;;;;;9.15;6.53;;;16.30;78.00;;;;;;5016627;28;20086;-86
2023/05/31 01:34:14;;;;;;;9.57;6.90;;;16.30;78.10;;;;;;5016691;28;20437;-86
2023/05/31 01:36:40;;;;;;;9.00;6.25;;;16.30;78.10;;;;;;5016420;28;20026;-85
2023/05/31 01:39:06;;;;;;;9.65;6.43;;;16.30;78.10;;;;;;5034187;28;20398;-85
2023/05/31 01:41:36;;;;;;;9.18;6.63;;;16.30;78.10;;;;;;5032797;28;20372;-86
2023/05/31 01:44:02;;;;;;;8.70;6.50;;;16.30;78.10;;;;;;5016326;28;20029;-85
2023/05/31 01:46:28;;;;;;;9.02;6.60;;;16.30;78.10;;;;;;5015932;28;20034;-86
2023/05/31 01:48:54;;;;;;;10.23;7.45;;;16.30;78.10;;;;;;5032686;28;20076;-85
2023/05/31 01:51:21;;;;;;;8.60;6.40;;;16.30;78.10;;;;;;5016042;28;20029;-86
2023/05/31 01:53:47;;;;;;;9.07;6.22;;;16.30;78.10;;;;;;5016101;28;20108;-85
2023/05/31 01:56:13;;;;;;;9.32;6.32;;;16.20;78.10;;;;;;5015699;28;20116;-86
2023/05/31 01:58:46;;;;;;;8.48;6.03;;;16.30;78.20;;;;;;5015999;28;20061;-85
2023/05/31 02:01:12;;;;;;;8.10;5.93;;;16.20;78.00;;;;;;5015996;28;20087;-86
2023/05/31 02:03:39;;;;;;;8.15;5.82;;;16.30;78.10;;;;;;5015971;28;20029;-85
2023/05/31 02:06:05;;;;;;;8.90;6.28;;;16.30;78.00;;;;;;5015632;28;20435;-86
2023/05/31 02:08:30;;;;;;;8.60;6.20;;;16.30;78.00;;;;;;5033550;28;20021;-86
2023/05/31 02:10:56;;;;;;;8.82;6.05;;;16.30;78.00;;;;;;5015196;28;20022;-85
2023/05/31 02:13:26;;;;;;;8.60;5.68;;;16.40;77.90;;;;;;5015582;28;20466;-86
2023/05/31 02:15:51;;;;;;;8.57;6.00;;;16.40;77.90;;;;;;5033215;28;20035;-88
2023/05/31 02:18:17;;;;;;;8.90;6.15;;;16.40;77.90;;;;;;5033380;28;20021;-86
2023/05/31 02:20:43;;;;;;;9.15;5.68;;;16.40;77.80;;;;;;5015568;28;20033;-86
2023/05/31 02:23:09;;;;;;;8.60;5.78;;;16.40;77.80;;;;;;5015614;28;20461;-86
2023/05/31 02:25:35;;;;;;;7.95;5.40;;;16.30;77.70;;;;;;5015420;28;20053;-86
2023/05/31 02:28:00;;;;;;;9.23;6.30;;;16.40;77.80;;;;;;5015385;28;20030;-86
2023/05/31 02:30:30;;;;;;;10.60;7.28;;;16.30;77.80;;;;;;5015481;28;20025;-86
2023/05/31 02:32:56;;;;;;;7.43;5.40;;;16.30;77.80;;;;;;5015458;28;20395;-86
2023/05/31 02:35:22;;;;;;;10.07;7.40;;;16.30;77.90;;;;;;5031836;28;20055;-86
2023/05/31 02:37:48;;;;;;;10.90;7.60;;;16.30;78.00;;;;;;5032889;28;20024;-86
2023/05/31 02:40:14;;;;;;;12.00;7.60;;;16.30;78.00;;;;;;5015468;28;20021;-85
2023/05/31 02:42:41;;;;;;;11.35;7.60;;;16.30;78.10;;;;;;5007007;28;20033;-85
2023/05/31 02:45:08;;;;;;;10.65;7.45;;;16.30;78.10;;;;;;5011936;28;20026;-85
2023/05/31 02:47:36;;;;;;;10.73;6.97;;;16.30;78.10;;;;;;5012659;28;20038;-85
2023/05/31 02:50:02;;;;;;;11.02;7.57;;;16.30;78.10;;;;;;5013055;28;20083;-85
2023/05/31 02:52:28;;;;;;;11.68;7.82;;;16.30;78.20;;;;;;5011846;28;20018;-85
2023/05/31 02:54:53;;;;;;;10.75;7.65;;;16.20;78.10;;;;;;5013007;28;20442;-85
2023/05/31 02:57:19;;;;;;;9.35;7.20;;;16.20;78.60;;;;;;5011503;28;20113;-86
2023/05/31 02:59:45;;;;;;;9.60;7.05;;;16.20;78.10;;;;;;5012983;28;20394;-85
2023/05/31 03:02:11;;;;;;;9.93;7.25;;;16.20;78.20;;;;;;5011865;28;20080;-85
2023/05/31 03:04:37;;;;;;;10.20;7.20;;;16.20;78.20;;;;;;5011642;28;20021;-86
2023/05/31 03:07:02;;;;;;;10.18;7.60;;;16.20;78.20;;;;;;5011247;28;20029;-87
2023/05/31 03:09:28;;;;;;;11.23;7.80;;;16.20;78.20;;;;;;5011836;28;20033;-86
2023/05/31 03:15:16;;;;;;;10.20;7.60;;;16.20;78.20;;;;;;5025130;28;20568;-89
2023/05/31 03:17:41;;;;;;;12.85;7.95;;;16.20;78.20;;;;;;5013684;28;20030;-88
2023/05/31 03:20:09;;;;;;;9.75;7.22;;;16.20;78.20;;;;;;5014043;28;20022;-89
2023/05/31 03:22:35;;;;;;;9.43;6.40;;;16.20;78.20;;;;;;5013638;28;20510;-88
2023/05/31 03:25:02;;;;;;;10.25;6.40;;;16.20;78.20;;;;;;5014942;28;20032;-90
2023/05/31 03:27:28;;;;;;;9.18;6.47;;;16.30;78.70;;;;;;5009373;28;20399;-87
2023/05/31 03:29:54;;;;;;;9.60;6.70;;;16.20;78.10;;;;;;5007945;28;20029;-90
2023/05/31 03:32:19;;;;;;;9.00;6.82;;;16.20;78.00;;;;;;5024261;28;20056;-89
2023/05/31 03:34:45;;;;;;;10.10;7.30;;;16.30;78.00;;;;;;5008492;28;20017;-88
2023/05/31 03:37:10;;;;;;;9.88;7.10;;;16.30;77.90;;;;;;4998352;28;20037;-89
2023/05/31 03:39:36;;;;;;;9.18;6.68;;;16.40;77.90;;;;;;4989122;28;20034;-89
2023/05/31 03:42:02;;;;;;;10.63;7.10;;;16.40;77.90;;;;;;4988442;28;20045;-89
2023/05/31 03:44:27;;;;;;;10.23;6.95;;;16.30;77.80;;;;;;4988778;28;20121;-90
2023/05/31 03:46:53;;;;;;;9.02;6.80;;;16.40;78.40;;;;;;4988502;28;20038;-91
2023/05/31 03:49:18;;;;;;;9.88;6.95;;;16.30;77.80;;;;;;4989260;28;20372;-88
2023/05/31 03:51:44;;;;;;;9.73;7.03;;;16.40;77.90;;;;;;4989768;28;20807;-89
2023/05/31 03:54:09;;;;;;;10.07;7.00;;;16.30;77.90;;;;;;4989999;28;20022;-89
2023/05/31 03:56:35;;;;;;;12.25;8.57;;;16.30;77.90;;;;;;4991234;28;20034;-88
2023/05/31 03:59:00;;;;;;;11.75;8.23;;;16.20;77.90;;;;;;4990962;28;20452;-88
2023/05/31 04:01:26;;;;;;;11.52;8.50;;;16.30;78.10;;;;;;4991651;28;20034;-88
2023/05/31 04:03:52;;;;;;;11.30;8.10;;;16.30;78.10;;;;;;4991290;28;20450;-87
2023/05/31 04:06:18;;;;;;;11.07;7.95;;;16.20;78.10;;;;;;4991205;28;20034;-86
2023/05/31 04:08:43;;;;;;;11.57;7.90;;;16.30;78.10;;;;;;4990911;28;20032;-89
2023/05/31 04:11:09;;;;;;;12.68;8.85;;;16.30;78.10;;;;;;4990955;28;20026;-89
2023/05/31 04:13:34;;;;;;;11.18;8.23;;;16.20;78.10;;;;;;4990321;28;20037;-87
2023/05/31 04:16:00;;;;;;;10.05;7.28;;;16.20;78.20;;;;;;4990017;28;20045;-88
2023/05/31 04:18:28;;;;;;;11.88;8.15;;;16.20;78.10;;;;;;4989416;28;20036;-87
2023/05/31 04:20:54;;;;;;;10.48;7.90;;;16.30;78.20;;;;;;4989297;28;20480;-87
2023/05/31 04:23:20;;;;;;;11.50;7.97;;;16.40;78.20;;;;;;4989188;28;20030;-88
2023/05/31 04:25:45;;;;;;;11.07;7.65;;;16.20;78.10;;;;;;4989289;28;20030;-86
2023/05/31 04:28:12;;;;;;;12.60;8.75;;;16.20;78.10;;;;;;4989527;28;20026;-86
2023/05/31 04:30:38;;;;;;;11.18;8.30;;;16.30;78.20;;;;;;4989392;28;20033;-86
2023/05/31 04:33:04;;;;;;;11.93;8.93;;;16.10;78.10;;;;;;4988945;28;20037;-86
2023/05/31 04:35:30;;;;;;;10.93;8.25;;;16.20;78.10;;;;;;4992590;28;20036;-87
2023/05/31 04:37:59;;;;;;;10.93;7.85;;;16.20;78.10;;;;;;4993079;28;20105;-88
2023/05/31 04:40:25;;;;;;;11.77;8.40;;;16.20;78.10;;;;;;4992532;28;20036;-89
2023/05/31 04:42:51;;;;;;;11.93;8.60;;;16.20;78.10;;;;;;4992417;28;20034;-88
2023/05/31 04:45:17;;;;;;;11.98;7.60;;;16.30;78.10;;;;;;4992943;28;20030;-86
2023/05/31 04:47:45;;;;;;;11.07;7.70;;;16.20;78.10;;;;;;4992490;28;20064;-87
2023/05/31 04:50:11;;;;;;;11.82;8.98;;;16.20;78.00;;;;;;4992706;28;20030;-87
2023/05/31 04:52:39;;;;;;;10.75;7.22;;;16.30;78.00;;;;;;4992387;28;20032;-86
2023/05/31 04:55:05;;;;;;;10.50;7.90;;;16.20;77.90;;;;;;4992278;28;20030;-88
2023/05/31 04:57:32;;;;;;;11.55;8.32;;;16.30;77.90;;;;;;4992712;28;20030;-87
2023/05/31 04:59:58;;;;;;;11.90;8.02;;;16.30;77.90;;;;;;4992482;28;20026;-86
2023/05/31 05:02:25;;;;;;;11.02;8.13;;;16.40;77.80;;;;;;4992239;28;20029;-87
2023/05/31 05:04:51;;;;;;;12.05;8.57;;;16.40;77.80;;;;;;4992580;28;20093;-87
2023/05/31 05:07:17;;;;;;;12.88;8.80;;;16.50;77.90;;;;;;4991965;28;20029;-88
2023/05/31 05:09:43;;;;;;;10.30;7.43;;;16.40;77.80;;;;;;4991724;28;20025;-88
2023/05/31 05:12:18;;;;;;;11.98;8.60;;;16.40;77.70;;;;;;4991855;28;20026;-87
2023/05/31 05:14:43;;;;;;;10.40;7.63;;;16.40;77.70;;;;;;4991638;28;20099;-89
2023/05/31 05:17:09;;;;;;;12.05;9.05;;;16.40;77.70;;;;;;4992854;28;20441;-89
2023/05/31 05:19:35;;;;;;;13.15;9.38;;;16.40;77.70;;;;;;4992221;28;20034;-88
2023/05/31 05:22:00;;;;;;;11.45;8.32;;;16.40;77.70;;;;;;4992438;28;20025;-87
2023/05/31 05:24:26;;;;;;;11.75;7.85;;;16.40;77.80;;;;;;4991494;28;20037;-88
2023/05/31 05:26:51;;;;;;;11.60;8.07;;;16.40;77.90;;;;;;4995547;28;20030;-88
2023/05/31 05:29:17;;;;;;;12.82;8.60;;;16.30;77.90;;;;;;5001373;28;20026;-88
2023/05/31 05:31:42;;;;;;;14.73;9.82;;;16.30;77.90;;;;;;5015414;28;20371;-87
2023/05/31 05:34:09;;;;;;;13.70;9.27;;;16.30;77.90;;;;;;5015922;28;20069;-88
2023/05/31 05:36:36;;;;;;;12.23;8.30;;;16.30;77.80;;;;;;5033613;28;20036;-88
2023/05/31 05:39:05;;;;;;;12.50;8.60;;;16.30;77.90;;;;;;5015709;28;20075;-88
2023/05/31 05:41:31;;;;;;;12.50;8.23;;;16.30;77.90;;;;;;5015822;28;20079;-88
2023/05/31 05:43:57;;;;;;;12.93;8.98;;;16.30;77.90;;;;;;5015536;28;20021;-87
2023/05/31 05:46:22;;;;;;;12.68;8.50;;;16.30;77.90;;;;;;5015527;28;20099;-88
2023/05/31 05:48:48;;;;;;;13.52;8.77;;;16.30;77.90;;;;;;5015614;28;20490;-88
2023/05/31 05:51:13;;;;;;;12.63;8.70;;;16.30;77.90;;;;;;5015663;28;20387;-88
2023/05/31 05:53:39;;;;;;;14.23;9.73;;;16.30;77.90;;;;;;5015176;28;20029;-87
2023/05/31 05:56:05;;;;;;;11.98;7.93;;;16.30;77.90;;;;;;5015467;28;20029;-88
2023/05/31 05:58:31;;;;;;;12.82;8.23;;;16.30;78.40;;;;;;5015375;28;20049;-88
2023/05/31 06:00:56;;;;;;;11.63;8.23;;;16.30;77.90;;;;;;5015481;28;20049;-88
2023/05/31 06:03:23;;;;;;;12.63;8.35;;;16.30;77.80;;;;;;5015043;28;20144;-89
2023/05/31 06:05:49;;;;;;;12.13;8.50;;;16.30;77.80;;;;;;5015245;28;20113;-88
2023/05/31 06:08:15;;;;;;;12.60;8.50;;;16.30;77.80;;;;;;5015202;28;20056;-88
2023/05/31 06:10:40;;;;;;;14.60;8.57;;;16.30;77.80;;;;;;5015084;28;20025;-89
2023/05/31 06:13:06;;;;;;;12.32;8.52;;;16.40;77.80;;;;;;5015036;28;20104;-88
2023/05/31 06:15:32;;;;;;;11.75;8.23;;;16.40;77.80;;;;;;5014839;28;20037;-88
2023/05/31 06:17:57;;;;;;;11.48;8.27;;;16.40;77.70;;;;;;5015055;28;20025;-88
2023/05/31 06:20:23;;;;;;;13.00;7.63;;;16.40;77.70;;;;;;5032734;28;20148;-88
2023/05/31 06:22:51;;;;;;;11.20;7.95;;;16.40;77.60;;;;;;5014557;28;20510;-88
2023/05/31 06:25:17;;;;;;;11.60;7.95;;;16.50;77.50;;;;;;5014999;28;20048;-88
2023/05/31 06:27:45;;;;;;;11.93;8.27;;;16.50;77.90;;;;;;5014732;28;20029;-88
2023/05/31 06:30:12;;;;;;;11.38;7.78;;;16.50;77.30;;;;;;5014901;28;20025;-88
2023/05/31 06:32:37;;;;;;;11.63;8.63;;;16.50;77.20;;;;;;5032175;28;20024;-88
2023/05/31 06:35:03;;;;;;;12.43;7.85;;;16.50;77.20;;;;;;5014748;28;20143;-88
2023/05/31 06:37:29;;;;;;;12.35;8.25;;;16.60;77.20;;;;;;5014433;28;20034;-88
2023/05/31 06:39:55;;;;;;;13.00;8.88;;;16.60;77.20;;;;;;5032416;28;20029;-88
2023/05/31 06:42:21;;;;;;;12.85;8.85;;;16.60;77.20;;;;;;5014294;28;20028;-89
2023/05/31 06:44:47;;;;;;;12.30;8.82;;;16.60;77.10;;;;;;5014567;28;20056;-88
2023/05/31 06:47:13;;;;;;;11.77;8.45;;;16.60;77.10;;;;;;5014500;28;20026;-87
2023/05/31 06:49:38;;;;;;;10.75;7.88;;;16.60;77.00;;;;;;5014669;28;20024;-89
2023/05/31 06:52:04;;;;;;;11.50;8.07;;;16.60;77.00;;;;;;5014430;28;20258;-88
2023/05/31 06:54:36;;;;;;;11.52;7.72;;;16.60;77.00;;;;;;5032381;28;20529;-88
2023/05/31 06:57:03;;;;;;;11.75;8.43;;;16.60;77.00;;;;;;5014095;28;20021;-89
2023/05/31 06:59:28;;;;;;;12.55;8.57;;;16.60;77.10;;;;;;5014491;28;20025;-88
2023/05/31 07:01:54;;;;;;;12.95;9.45;;;16.60;77.10;;;;;;5014208;28;20033;-88
2023/05/31 07:04:20;;;;;;;12.05;8.75;;;16.60;77.10;;;;;;5014321;28;20033;-88
2023/05/31 07:06:46;;;;;;;12.68;8.55;;;16.60;77.10;;;;;;5014009;28;20070;-89
2023/05/31 07:09:11;;;;;;;13.18;9.63;;;16.70;77.00;;;;;;5014247;28;20487;-87
2023/05/31 07:11:42;;;;;;;13.40;8.93;;;16.70;77.00;;;;;;5014115;28;20021;-88
2023/05/31 07:14:09;;;;;;;14.30;9.30;;;16.70;77.00;;;;;;5014240;28;20107;-88
2023/05/31 07:16:35;;;;;;;13.73;9.52;;;16.70;77.00;;;;;;5014157;28;20141;-89
2023/05/31 07:19:01;;;;;;;11.95;8.80;;;16.70;76.90;;;;;;5014203;28;20116;-88
2023/05/31 07:21:26;;;;;;;13.48;9.65;;;16.70;76.90;;;;;;5031661;28;20056;-88
2023/05/31 07:23:52;;;;;;;13.80;9.68;;;16.70;76.80;;;;;;5013790;28;20475;-88
2023/05/31 07:26:18;;;;;;;13.43;9.52;;;16.70;76.90;;;;;;5014084;28;20025;-88
2023/05/31 07:28:45;;;;;;;13.63;9.20;;;16.70;76.80;;;;;;5014215;28;20022;-88
2023/05/31 07:31:11;;;;;;;12.57;8.75;;;16.80;76.80;;;;;;5031820;28;20100;-88
2023/05/31 07:33:37;;;;;;;13.40;9.38;;;16.80;76.80;;;;;;5013686;28;20076;-88
2023/05/31 07:36:02;;;;;;;14.68;9.77;;;16.80;76.70;;;;;;5013851;28;20031;-87
2023/05/31 07:38:28;;;;;;;13.00;9.25;;;16.80;76.70;;;;;;5013786;28;20399;-88
2023/05/31 07:40:54;;;;;;;13.38;9.52;;;16.80;76.70;;;;;;5014015;28;20029;-88
2023/05/31 07:43:22;;;;;;;13.90;9.85;;;16.90;76.60;;;;;;5013542;28;20101;-88
2023/05/31 07:45:49;;;;;;;13.52;9.55;;;16.80;76.60;;;;;;5013793;28;20534;-89
2023/05/31 07:48:14;;;;;;;13.40;9.40;;;16.90;76.60;;;;;;5013914;28;20032;-88
2023/05/31 07:50:40;;;;;;;13.15;9.05;;;16.90;76.50;;;;;;5013712;28;20021;-88
2023/05/31 07:53:05;;;;;;;13.50;9.38;;;17.00;76.40;;;;;;5013616;28;20029;-88
2023/05/31 07:55:31;;;;;;;13.40;8.88;;;17.00;76.80;;;;;;5013728;28;20044;-88
2023/05/31 07:57:56;;;;;;;13.23;9.50;;;17.00;76.10;;;;;;5013814;28;20026;-88
2023/05/31 08:00:23;;;;;;;14.00;9.93;;;17.10;76.00;;;;;;5013704;28;20621;-88
2023/05/31 08:02:49;;;;;;;13.10;9.15;;;17.10;75.90;;;;;;5031018;28;20037;-88
2023/05/31 08:05:14;;;;;;;12.48;8.93;;;17.10;75.80;;;;;;5013784;28;20021;-88
2023/05/31 08:07:40;;;;;;;12.90;8.82;;;17.20;75.80;;;;;;5013571;28;20034;-88
2023/05/31 08:10:06;;;;;;;12.35;8.95;;;17.20;75.80;;;;;;5017105;28;20029;-89
2023/05/31 08:12:31;;;;;;;12.55;8.82;;;17.20;75.70;;;;;;5016932;28;20022;-88
2023/05/31 08:14:57;;;;;;;12.48;8.80;;;17.20;75.60;;;;;;5017299;28;20022;-88
2023/05/31 08:17:22;;;;;;;13.00;9.18;;;17.20;75.60;;;;;;5017332;28;20076;-88
2023/05/31 08:19:48;;;;;;;12.50;9.02;;;17.20;75.70;;;;;;5017301;28;20087;-88
2023/05/31 08:22:14;;;;;;;12.02;8.90;;;17.20;75.70;;;;;;5034639;28;20473;-88
2023/05/31 08:24:40;;;;;;;11.82;8.50;;;17.20;75.70;;;;;;5017048;28;20025;-88
2023/05/31 08:27:05;;;;;;;13.60;9.15;;;17.20;75.80;;;;;;5017003;28;20037;-88
2023/05/31 08:29:31;;;;;;;12.10;8.90;;;17.20;75.80;;;;;;5017033;28;20032;-88
2023/05/31 08:31:56;;;;;;;13.18;9.00;;;17.20;75.90;;;;;;5034735;28;20084;-88
2023/05/31 08:34:22;;;;;;;13.18;8.80;;;17.20;75.90;;;;;;5017031;28;20021;-88
2023/05/31 08:36:47;;;;;;;12.80;9.52;;;17.20;75.90;;;;;;5017022;28;20366;-88
2023/05/31 08:39:13;;;;;;;12.20;8.73;;;17.20;75.90;;;;;;5017025;28;20491;-88
2023/05/31 08:42:04;;;;;;;11.93;8.55;;;17.20;75.90;;;;;;5016640;28;20068;-86
2023/05/31 08:44:30;;;;;;;12.73;8.77;;;17.30;75.90;;;;;;5009944;28;20048;-89
2023/05/31 08:47:04;;;;;;;12.13;8.70;;;17.20;75.80;;;;;;5016851;28;20025;-88
2023/05/31 08:49:31;;;;;;;12.20;8.75;;;17.30;75.90;;;;;;5016741;28;20095;-88
2023/05/31 08:51:58;;;;;;;12.07;8.63;;;17.30;75.80;;;;;;5016421;28;20053;-89
2023/05/31 08:54:24;;;;;;;12.70;8.93;;;17.30;75.80;;;;;;5016795;28;20026;-88
2023/05/31 08:56:50;;;;;;;11.38;8.25;;;17.30;75.70;;;;;;5016747;28;20083;-88
2023/05/31 08:59:18;;;;;;;12.60;8.73;;;17.30;75.70;;;;;;5034303;28;20033;-88
2023/05/31 09:01:44;;;;;;;12.45;8.85;;;17.40;75.70;;;;;;5016187;28;20109;-88
2023/05/31 09:04:10;;;;;;;12.82;8.82;;;17.30;75.70;;;;;;5034140;28;20057;-88
2023/05/31 09:06:36;;;;;;;11.73;8.90;;;17.40;75.70;;;;;;5016394;28;20029;-88
2023/05/31 09:09:02;;;;;;;12.80;8.98;;;17.40;75.70;;;;;;5016491;28;20364;-88
2023/05/31 09:11:28;;;;;;;11.80;8.65;;;17.40;75.60;;;;;;5016153;28;20057;-89
2023/05/31 09:13:54;;;;;;;12.23;8.70;;;17.40;75.60;;;;;;5016044;28;20464;-89
2023/05/31 09:16:22;;;;;;;11.70;8.25;;;17.40;75.60;;;;;;5016114;28;20037;-89
2023/05/31 09:18:47;;;;;;;11.18;8.18;;;17.40;75.60;;;;;;5033650;28;20033;-88
2023/05/31 09:21:14;;;;;;;11.45;8.52;;;17.50;75.60;;;;;;5016162;28;20022;-88
2023/05/31 09:23:57;;;;;;;12.20;9.00;;;17.50;75.40;;;;;;5015847;28;20033;-88
2023/05/31 09:26:23;;;;;;;11.80;8.60;;;17.60;75.40;;;;;;5120238;22;20198;-84
2023/05/31 09:28:51;;;;;;;12.30;8.20;;;17.60;75.30;;;;;;5073212;28;20505;-84
2023/05/31 09:31:19;;;;;;;11.63;8.25;;;17.60;75.80;;;;;;5073218;28;20016;-84
2023/05/31 09:33:56;;;;;;;11.35;8.43;;;17.60;75.10;;;;;;5072920;28;20020;-85
2023/05/31 09:36:25;;;;;;;11.98;8.50;;;17.60;75.10;;;;;;5072991;28;20055;-84
2023/05/31 09:38:50;;;;;;;11.18;8.00;;;17.70;75.20;;;;;;5073249;28;20113;-84
2023/05/31 09:41:19;;;;;;;10.65;7.50;;;17.60;75.00;;;;;;5073289;28;20485;-84
2023/05/31 09:43:50;;;;;;;10.95;7.75;;;17.70;74.90;;;;;;5072471;28;20024;-84
2023/05/31 09:46:17;;;;;;;11.20;8.02;;;17.60;74.90;;;;;;5073933;28;20112;-84
2023/05/31 09:48:44;;;;;;;11.65;8.18;;;17.60;75.00;;;;;;5073460;28;20375;-84
2023/05/31 09:51:11;;;;;;;11.10;7.75;;;17.60;75.10;;;;;;5073176;28;20024;-84
2023/05/31 09:53:44;;;;;;;11.75;8.32;;;17.60;75.20;;;;;;5073130;28;20389;-84
2023/05/31 09:56:11;;;;;;;11.07;7.68;;;17.60;75.30;;;;;;5074241;28;20545;-84
2023/05/31 09:58:37;;;;;;;11.05;8.05;;;17.60;75.40;;;;;;5072922;28;20132;-83
2023/05/31 10:01:03;;;;;;;11.05;7.97;;;17.60;75.40;;;;;;5074278;28;20474;-83
2023/05/31 10:03:31;;;;;;;11.27;7.97;;;17.60;75.40;;;;;;5073926;28;20157;-84
2023/05/31 10:05:56;;;;;;;11.55;7.93;;;17.60;75.40;;;;;;5072585;28;20032;-84
2023/05/31 10:08:23;;;;;;;10.77;7.72;;;17.60;75.40;;;;;;5072777;28;20028;-84
2023/05/31 10:10:48;;;;;;;10.38;7.15;;;17.60;75.50;;;;;;5072372;28;20107;-83
2023/05/31 10:13:17;;;;;;;11.52;7.82;;;17.60;75.40;;;;;;5072508;28;20507;-84
2023/05/31 10:15:45;;;;;;;11.38;8.18;;;17.60;75.50;;;;;;5072474;28;20021;-84
2023/05/31 10:18:15;;;;;;;10.75;7.45;;;17.60;75.50;;;;;;5072287;28;20075;-84
2023/05/31 10:21:13;;;;;;;11.05;8.10;;;17.60;75.50;;;;;;5072277;28;20401;-83
2023/05/31 10:23:45;;;;;;;10.52;7.40;;;17.60;75.50;;;;;;5069674;28;20040;-84
2023/05/31 10:26:17;;;;;;;10.90;7.55;;;17.70;75.50;;;;;;5060900;28;20033;-84
2023/05/31 10:29:07;;;;;;;11.05;7.65;;;17.70;75.50;;;;;;5053402;28;20100;-83
2023/05/31 10:32:22;;;;;;;10.70;7.10;;;17.70;75.50;;;;;;5034772;28;20017;-84
2023/05/31 10:34:48;;;;;;;10.48;7.40;;;17.70;75.50;;;;;;5047095;28;20036;-84
2023/05/31 10:37:14;;;;;;;11.27;7.80;;;17.70;75.40;;;;;;5053214;28;20044;-84
2023/05/31 10:39:58;;;;;;;10.70;7.43;;;17.70;75.50;;;;;;5053326;28;20028;-84
2023/05/31 10:42:53;;;;;;;9.73;7.18;;;17.70;75.40;;;;;;5053380;28;20032;-84
2023/05/31 10:45:24;;;;;;;10.32;7.47;;;17.70;75.50;;;;;;5035009;28;20036;-83
2023/05/31 10:47:51;;;;;;;10.57;7.53;;;17.70;75.40;;;;;;5035126;28;20624;-83
2023/05/31 10:50:20;;;;;;;10.70;7.68;;;17.70;75.40;;;;;;5053006;28;20120;-83
2023/05/31 10:52:52;;;;;;;10.68;7.45;;;17.70;75.30;;;;;;5034717;28;20203;-84
2023/05/31 10:55:24;;;;;;;9.70;6.80;;;17.80;75.20;;;;;;5034909;28;20082;-82
2023/05/31 10:57:53;;;;;;;10.10;7.05;;;17.80;75.20;;;;;;5052813;28;20100;-84
2023/05/31 11:00:23;;;;;;;9.73;6.70;;;17.80;75.20;;;;;;5034746;28;20035;-83
2023/05/31 11:02:56;;;;;;;9.70;7.03;;;17.80;75.10;;;;;;5034427;28;20029;-83
2023/05/31 11:05:24;;;;;;;9.55;6.70;;;17.80;75.10;;;;;;5052652;28;20108;-83
2023/05/31 11:07:51;;;;;;;10.25;6.85;;;17.80;75.00;;;;;;5052173;28;20024;-83
2023/05/31 11:10:31;;;;;;;9.77;6.95;;;17.80;75.00;;;;;;5037669;28;20494;-85
2023/05/31 11:13:02;;;;;;;10.50;7.22;;;17.80;75.00;;;;;;5037311;28;20025;-85
2023/05/31 11:15:41;;;;;;;9.85;6.57;;;17.80;74.90;;;;;;5037317;28;20021;-85
2023/05/31 11:18:09;;;;;;;9.43;6.78;;;17.80;75.10;;;;;;5037232;28;20025;-85
2023/05/31 11:20:36;;;;;;;9.98;6.70;;;17.70;75.10;;;;;;5036908;28;20054;-84
2023/05/31 11:23:23;;;;;;;9.75;6.82;;;17.70;75.30;;;;;;5054358;28;20031;-84
2023/05/31 11:26:08;;;;;;;8.80;6.10;;;17.70;75.40;;;;;;5051946;28;20115;-84
2023/05/31 11:28:57;;;;;;;10.40;6.90;;;17.70;75.50;;;;;;5073528;28;20025;-84
2023/05/31 11:31:50;;;;;;;10.10;6.75;;;17.70;76.10;;;;;;5089495;28;20025;-84
2023/05/31 11:34:21;;;;;;;9.48;6.47;;;17.60;75.70;;;;;;5073212;28;20043;-84
2023/05/31 11:36:48;;;;;;;9.40;6.53;;;17.60;75.80;;;;;;5073091;28;20056;-83
2023/05/31 11:39:15;;;;;;;9.95;6.68;;;17.60;75.80;;;;;;5074433;28;20093;-84
2023/05/31 11:41:41;;;;;;;9.38;6.43;;;17.60;75.90;;;;;;5072693;28;20366;-84
2023/05/31 11:44:10;;;;;;;10.85;7.05;;;17.60;75.90;;;;;;5076264;28;20161;-84
2023/05/31 11:46:40;;;;;;;10.90;6.90;;;17.60;76.00;;;;;;5076528;28;20025;-84
2023/05/31 11:49:06;;;;;;;10.13;6.82;;;17.60;76.00;;;;;;5076511;28;20111;-84
2023/05/31 11:51:31;;;;;;;9.68;6.65;;;17.50;75.90;;;;;;5076549;28;20109;-83
2023/05/31 11:53:57;;;;;;;9.00;6.20;;;17.60;76.00;;;;;;5077286;28;20035;-84
2023/05/31 11:56:30;;;;;;;9.07;6.35;;;17.60;76.00;;;;;;5075989;28;20016;-83
2023/05/31 11:58:59;;;;;;;9.30;6.50;;;17.60;76.10;;;;;;5076150;28;20025;-83
2023/05/31 12:01:25;;;;;;;9.07;6.20;;;17.50;76.10;;;;;;5075948;28;20354;-83
2023/05/31 12:04:00;;;;;;;9.63;7.00;;;17.50;76.10;;;;;;5076165;28;20048;-84
2023/05/31 12:06:26;;;;;;;9.15;6.28;;;17.50;76.10;;;;;;5078145;28;20021;-85
2023/05/31 12:08:55;;;;;;;9.82;6.57;;;17.50;76.20;;;;;;5077301;28;20024;-84
2023/05/31 12:11:23;;;;;;;8.40;5.85;;;17.50;76.20;;;;;;5094233;28;20074;-84
2023/05/31 12:13:49;;;;;;;9.00;6.03;;;17.50;76.20;;;;;;5076830;28;20474;-85
2023/05/31 12:16:15;;;;;;;8.25;5.82;;;17.50;76.30;;;;;;5076670;28;20078;-84
2023/05/31 12:18:40;;;;;;;8.95;6.03;;;17.50;76.30;;;;;;5077971;28;20085;-84
2023/05/31 12:21:11;;;;;;;8.68;5.80;;;17.50;76.30;;;;;;5093839;28;20029;-84
2023/05/31 12:23:57;;;;;;;9.25;6.47;;;17.50;76.20;;;;;;5077885;28;20561;-84
2023/05/31 12:26:26;;;;;;;9.32;6.22;;;17.50;76.10;;;;;;5063053;28;20037;-84
2023/05/31 12:28:51;;;;;;;9.00;6.10;;;17.50;76.10;;;;;;5039822;28;20028;-84
2023/05/31 12:31:22;;;;;;;9.00;6.20;;;17.60;76.00;;;;;;5039334;28;20025;-84
2023/05/31 12:33:59;;;;;;;8.40;5.70;;;17.60;76.00;;;;;;5039285;28;20437;-83
2023/05/31 12:36:26;;;;;;;8.88;6.07;;;17.60;76.00;;;;;;5057442;28;20028;-84
2023/05/31 12:38:58;;;;;;;8.48;5.63;;;17.60;75.90;;;;;;5038859;28;20022;-83
2023/05/31 12:41:23;;;;;;;8.68;6.00;;;17.60;75.90;;;;;;5039007;28;20191;-84
2023/05/31 12:43:49;;;;;;;8.07;5.57;;;17.50;75.90;;;;;;5038547;28;20055;-84
2023/05/31 12:46:18;;;;;;;9.30;6.15;;;17.50;76.00;;;;;;5038653;28;20083;-85